sensor_id;sensor_type;location;lat;lon;timestamp;temperature;humidity
19692;DHT22;42748;50.016;19.890;2022-12-07T00:01:31;2.70;99.90
19692;DHT22;42748;50.016;19.890;2022-12-07T00:04:00;2.80;99.90
19692;DHT22;42748;50.016;19.890;2022-12-07T00:06:33;2.80;99.90
19692;DHT22;42748;50.016;19.890;2022-12-07T00:09:01;2.80;99.90
19692;DHT22;42748;50.016;19.890;2022-12-07T00:11:28;2.80;99.90
19692;DHT22;42748;50.016;19.890;2022-12-07T00:13:58;2.80;99.90
19692;DHT22;42748;50.016;19.890;2022-12-07T00:16:27;2.80;99.90
19692;DHT22;42748;50.016;19.890;2022-12-07T00:18:55;2.80;99.90
19692;DHT22;42748;50.016;19.890;2022-12-07T00:21:25;2.80;99.90
19692;DHT22;42748;50.016;19.890;2022-12-07T00:23:53;2.80;99.90
19692;DHT22;42748;50.016;19.890;2022-12-07T00:26:29;2.80;99.90
19692;DHT22;42748;50.016;19.890;2022-12-07T00:29:02;2.80;99.90
19692;DHT22;42748;50.016;19.890;2022-12-07T00:31:32;2.80;99.90
19692;DHT22;42748;50.016;19.890;2022-12-07T00:34:00;2.80;99.90
19692;DHT22;42748;50.016;19.890;2022-12-07T00:36:27;2.80;99.90
19692;DHT22;42748;50.016;19.890;2022-12-07T00:38:55;2.80;99.90
19692;DHT22;42748;50.016;19.890;2022-12-07T00:41:25;2.80;99.90
19692;DHT22;42748;50.016;19.890;2022-12-07T00:43:53;2.80;99.90
19692;DHT22;42748;50.016;19.890;2022-12-07T00:46:21;2.90;99.90
19692;DHT22;42748;50.016;19.890;2022-12-07T00:48:49;2.80;99.90
19692;DHT22;42748;50.016;19.890;2022-12-07T00:51:18;2.80;99.90
19692;DHT22;42748;50.016;19.890;2022-12-07T00:53:45;2.80;99.90
19692;DHT22;42748;50.016;19.890;2022-12-07T00:56:15;2.80;99.90
19692;DHT22;42748;50.016;19.890;2022-12-07T00:58:43;2.80;99.90
19692;DHT22;42748;50.016;19.890;2022-12-07T01:01:11;2.80;99.90
19692;DHT22;42748;50.016;19.890;2022-12-07T01:03:38;2.80;99.90
19692;DHT22;42748;50.016;19.890;2022-12-07T01:06:06;2.80;99.90
19692;DHT22;42748;50.016;19.890;2022-12-07T01:08:33;2.80;99.90
19692;DHT22;42748;50.016;19.890;2022-12-07T01:11:07;2.80;99.90
19692;DHT22;42748;50.016;19.890;2022-12-07T01:13:35;2.80;99.90
19692;DHT22;42748;50.016;19.890;2022-12-07T01:16:04;2.80;99.90
19692;DHT22;42748;50.016;19.890;2022-12-07T01:18:34;2.90;99.90
19692;DHT22;42748;50.016;19.890;2022-12-07T01:21:04;2.80;99.90
19692;DHT22;42748;50.016;19.890;2022-12-07T01:23:34;2.80;99.90
19692;DHT22;42748;50.016;19.890;2022-12-07T01:26:04;2.90;99.90
19692;DHT22;42748;50.016;19.890;2022-12-07T01:28:32;2.80;99.90
19692;DHT22;42748;50.016;19.890;2022-12-07T01:31:02;2.90;99.90
19692;DHT22;42748;50.016;19.890;2022-12-07T01:33:32;2.90;99.90
19692;DHT22;42748;50.016;19.890;2022-12-07T01:36:08;2.90;99.90
19692;DHT22;42748;50.016;19.890;2022-12-07T01:38:39;2.80;99.90
19692;DHT22;42748;50.016;19.890;2022-12-07T01:41:07;2.80;99.90
19692;DHT22;42748;50.016;19.890;2022-12-07T01:43:34;2.80;99.90
19692;DHT22;42748;50.016;19.890;2022-12-07T01:46:03;2.80;99.90
19692;DHT22;42748;50.016;19.890;2022-12-07T01:48:37;2.90;99.90
19692;DHT22;42748;50.016;19.890;2022-12-07T01:51:08;2.90;99.90
19692;DHT22;42748;50.016;19.890;2022-12-07T01:53:40;2.80;99.90
19692;DHT22;42748;50.016;19.890;2022-12-07T01:56:11;2.80;99.90
19692;DHT22;42748;50.016;19.890;2022-12-07T01:58:43;2.70;99.90
19692;DHT22;42748;50.016;19.890;2022-12-07T02:01:10;2.70;99.90
19692;DHT22;42748;50.016;19.890;2022-12-07T02:03:41;2.70;99.90
19692;DHT22;42748;50.016;19.890;2022-12-07T02:06:09;2.70;99.90
19692;DHT22;42748;50.016;19.890;2022-12-07T02:08:37;2.70;99.90
19692;DHT22;42748;50.016;19.890;2022-12-07T02:11:07;2.60;99.90
19692;DHT22;42748;50.016;19.890;2022-12-07T02:13:36;2.60;99.90
19692;DHT22;42748;50.016;19.890;2022-12-07T02:38:08;2.50;99.90
19692;DHT22;42748;50.016;19.890;2022-12-07T02:40:43;2.50;99.90
19692;DHT22;42748;50.016;19.890;2022-12-07T02:43:49;2.50;99.90
19692;DHT22;42748;50.016;19.890;2022-12-07T02:46:34;2.50;99.90
19692;DHT22;42748;50.016;19.890;2022-12-07T02:49:03;2.50;99.90
19692;DHT22;42748;50.016;19.890;2022-12-07T02:51:32;2.50;99.90
19692;DHT22;42748;50.016;19.890;2022-12-07T02:54:00;2.40;99.90
19692;DHT22;42748;50.016;19.890;2022-12-07T03:10:50;2.50;99.90
19692;DHT22;42748;50.016;19.890;2022-12-07T03:16:25;2.50;99.90
19692;DHT22;42748;50.016;19.890;2022-12-07T03:19:03;2.40;99.90
19692;DHT22;42748;50.016;19.890;2022-12-07T03:21:38;2.40;99.90
19692;DHT22;42748;50.016;19.890;2022-12-07T03:24:15;2.40;99.90
19692;DHT22;42748;50.016;19.890;2022-12-07T03:26:47;2.40;99.90
19692;DHT22;42748;50.016;19.890;2022-12-07T03:29:39;2.40;99.90
19692;DHT22;42748;50.016;19.890;2022-12-07T03:32:13;2.40;99.90
19692;DHT22;42748;50.016;19.890;2022-12-07T03:35:09;2.40;99.90
19692;DHT22;42748;50.016;19.890;2022-12-07T03:37:41;2.40;99.90
19692;DHT22;42748;50.016;19.890;2022-12-07T03:42:44;2.40;99.90
19692;DHT22;42748;50.016;19.890;2022-12-07T03:45:12;2.40;99.90
19692;DHT22;42748;50.016;19.890;2022-12-07T03:50:49;2.50;99.90
19692;DHT22;42748;50.016;19.890;2022-12-07T03:53:27;2.50;99.90
19692;DHT22;42748;50.016;19.890;2022-12-07T03:55:57;2.50;99.90
19692;DHT22;42748;50.016;19.890;2022-12-07T03:58:25;2.40;99.90
19692;DHT22;42748;50.016;19.890;2022-12-07T04:00:52;2.40;99.90
19692;DHT22;42748;50.016;19.890;2022-12-07T04:03:19;2.40;99.90
19692;DHT22;42748;50.016;19.890;2022-12-07T04:05:47;2.40;99.90
19692;DHT22;42748;50.016;19.890;2022-12-07T04:08:14;2.40;99.90
19692;DHT22;42748;50.016;19.890;2022-12-07T04:10:41;2.40;99.90
19692;DHT22;42748;50.016;19.890;2022-12-07T04:13:08;2.50;99.90
19692;DHT22;42748;50.016;19.890;2022-12-07T04:15:35;2.40;99.90
19692;DHT22;42748;50.016;19.890;2022-12-07T04:18:02;2.50;99.90
19692;DHT22;42748;50.016;19.890;2022-12-07T04:20:29;2.50;99.90
19692;DHT22;42748;50.016;19.890;2022-12-07T04:22:56;2.50;99.90
19692;DHT22;42748;50.016;19.890;2022-12-07T04:25:23;2.60;99.90
19692;DHT22;42748;50.016;19.890;2022-12-07T04:27:50;2.60;99.90
19692;DHT22;42748;50.016;19.890;2022-12-07T04:30:18;2.60;99.90
19692;DHT22;42748;50.016;19.890;2022-12-07T04:32:45;2.60;99.90
19692;DHT22;42748;50.016;19.890;2022-12-07T04:35:12;2.60;99.90
19692;DHT22;42748;50.016;19.890;2022-12-07T04:37:39;2.60;99.90
19692;DHT22;42748;50.016;19.890;2022-12-07T04:40:08;2.60;99.90
19692;DHT22;42748;50.016;19.890;2022-12-07T04:42:37;2.60;99.90
19692;DHT22;42748;50.016;19.890;2022-12-07T04:45:05;2.70;99.90
19692;DHT22;42748;50.016;19.890;2022-12-07T04:47:32;2.70;99.90
19692;DHT22;42748;50.016;19.890;2022-12-07T04:49:59;2.70;99.90
19692;DHT22;42748;50.016;19.890;2022-12-07T04:52:27;2.70;99.90
19692;DHT22;42748;50.016;19.890;2022-12-07T04:54:54;2.70;99.90
19692;DHT22;42748;50.016;19.890;2022-12-07T04:57:21;2.80;99.90
19692;DHT22;42748;50.016;19.890;2022-12-07T04:59:48;2.80;99.90
19692;DHT22;42748;50.016;19.890;2022-12-07T05:02:16;2.80;99.90
19692;DHT22;42748;50.016;19.890;2022-12-07T05:04:43;2.80;99.90
19692;DHT22;42748;50.016;19.890;2022-12-07T05:07:09;2.80;99.90
19692;DHT22;42748;50.016;19.890;2022-12-07T05:09:37;2.90;99.90
19692;DHT22;42748;50.016;19.890;2022-12-07T05:12:04;2.90;99.90
19692;DHT22;42748;50.016;19.890;2022-12-07T05:14:31;3.00;99.90
19692;DHT22;42748;50.016;19.890;2022-12-07T05:16:58;3.00;99.90
19692;DHT22;42748;50.016;19.890;2022-12-07T05:19:24;3.00;99.90
19692;DHT22;42748;50.016;19.890;2022-12-07T05:21:53;3.00;99.90
19692;DHT22;42748;50.016;19.890;2022-12-07T05:24:20;3.00;99.90
19692;DHT22;42748;50.016;19.890;2022-12-07T05:26:47;3.00;99.90
19692;DHT22;42748;50.016;19.890;2022-12-07T05:29:16;3.00;99.90
19692;DHT22;42748;50.016;19.890;2022-12-07T05:31:43;2.90;99.90
19692;DHT22;42748;50.016;19.890;2022-12-07T05:34:11;2.90;99.90
19692;DHT22;42748;50.016;19.890;2022-12-07T05:36:38;2.90;99.90
19692;DHT22;42748;50.016;19.890;2022-12-07T05:39:06;3.00;99.90
19692;DHT22;42748;50.016;19.890;2022-12-07T05:41:34;2.90;99.90
19692;DHT22;42748;50.016;19.890;2022-12-07T05:44:19;2.90;99.90
19692;DHT22;42748;50.016;19.890;2022-12-07T05:46:47;2.90;99.90
19692;DHT22;42748;50.016;19.890;2022-12-07T05:49:14;3.00;99.90
19692;DHT22;42748;50.016;19.890;2022-12-07T05:51:41;3.00;99.90
19692;DHT22;42748;50.016;19.890;2022-12-07T05:54:08;2.90;99.90
19692;DHT22;42748;50.016;19.890;2022-12-07T05:56:35;2.90;99.90
19692;DHT22;42748;50.016;19.890;2022-12-07T05:59:02;2.90;99.90
19692;DHT22;42748;50.016;19.890;2022-12-07T06:01:51;2.90;99.90
19692;DHT22;42748;50.016;19.890;2022-12-07T06:04:20;2.80;99.90
19692;DHT22;42748;50.016;19.890;2022-12-07T06:06:48;2.80;99.90
19692;DHT22;42748;50.016;19.890;2022-12-07T06:09:15;2.80;99.90
19692;DHT22;42748;50.016;19.890;2022-12-07T06:11:42;2.70;99.90
19692;DHT22;42748;50.016;19.890;2022-12-07T06:14:27;2.70;99.90
19692;DHT22;42748;50.016;19.890;2022-12-07T06:16:54;2.70;99.90
19692;DHT22;42748;50.016;19.890;2022-12-07T06:19:22;2.60;99.90
19692;DHT22;42748;50.016;19.890;2022-12-07T06:21:49;2.60;99.90
19692;DHT22;42748;50.016;19.890;2022-12-07T06:24:17;2.60;99.90
19692;DHT22;42748;50.016;19.890;2022-12-07T06:26:45;2.60;99.90
19692;DHT22;42748;50.016;19.890;2022-12-07T06:29:12;2.60;99.90
19692;DHT22;42748;50.016;19.890;2022-12-07T06:31:40;2.60;99.90
19692;DHT22;42748;50.016;19.890;2022-12-07T06:34:10;2.60;99.90
19692;DHT22;42748;50.016;19.890;2022-12-07T06:36:38;2.50;99.90
19692;DHT22;42748;50.016;19.890;2022-12-07T06:39:05;2.50;99.90
19692;DHT22;42748;50.016;19.890;2022-12-07T06:41:33;2.50;99.90
19692;DHT22;42748;50.016;19.890;2022-12-07T06:44:00;2.50;99.90
19692;DHT22;42748;50.016;19.890;2022-12-07T06:46:27;2.40;99.90
19692;DHT22;42748;50.016;19.890;2022-12-07T06:48:54;2.40;99.90
19692;DHT22;42748;50.016;19.890;2022-12-07T06:51:21;2.40;99.90
19692;DHT22;42748;50.016;19.890;2022-12-07T06:53:48;2.40;99.90
19692;DHT22;42748;50.016;19.890;2022-12-07T06:56:15;2.40;99.90
19692;DHT22;42748;50.016;19.890;2022-12-07T06:58:42;2.40;99.90
19692;DHT22;42748;50.016;19.890;2022-12-07T07:01:11;2.50;99.90
19692;DHT22;42748;50.016;19.890;2022-12-07T07:03:39;2.40;99.90
19692;DHT22;42748;50.016;19.890;2022-12-07T07:06:07;2.40;99.90
19692;DHT22;42748;50.016;19.890;2022-12-07T07:08:38;2.50;99.90
19692;DHT22;42748;50.016;19.890;2022-12-07T07:11:05;2.40;99.90
19692;DHT22;42748;50.016;19.890;2022-12-07T07:13:33;2.40;99.90
19692;DHT22;42748;50.016;19.890;2022-12-07T07:16:01;2.50;99.90
19692;DHT22;42748;50.016;19.890;2022-12-07T07:18:28;2.40;99.90
19692;DHT22;42748;50.016;19.890;2022-12-07T07:20:55;2.50;99.90
19692;DHT22;42748;50.016;19.890;2022-12-07T07:23:23;2.50;99.90
19692;DHT22;42748;50.016;19.890;2022-12-07T07:25:50;2.50;99.90
19692;DHT22;42748;50.016;19.890;2022-12-07T07:28:17;2.40;99.90
19692;DHT22;42748;50.016;19.890;2022-12-07T07:30:44;2.40;99.90
19692;DHT22;42748;50.016;19.890;2022-12-07T07:33:12;2.50;99.90
19692;DHT22;42748;50.016;19.890;2022-12-07T07:35:39;2.50;99.90
19692;DHT22;42748;50.016;19.890;2022-12-07T07:38:07;2.40;99.90
19692;DHT22;42748;50.016;19.890;2022-12-07T07:40:34;2.40;99.90
19692;DHT22;42748;50.016;19.890;2022-12-07T07:43:01;2.40;99.90
19692;DHT22;42748;50.016;19.890;2022-12-07T07:45:28;2.40;99.90
19692;DHT22;42748;50.016;19.890;2022-12-07T07:48:00;2.40;99.90
19692;DHT22;42748;50.016;19.890;2022-12-07T07:50:31;2.40;99.90
19692;DHT22;42748;50.016;19.890;2022-12-07T07:52:58;2.40;99.90
19692;DHT22;42748;50.016;19.890;2022-12-07T07:55:25;2.30;99.90
19692;DHT22;42748;50.016;19.890;2022-12-07T07:57:52;2.40;99.90
19692;DHT22;42748;50.016;19.890;2022-12-07T08:00:21;2.40;99.90
19692;DHT22;42748;50.016;19.890;2022-12-07T08:02:48;2.40;99.90
19692;DHT22;42748;50.016;19.890;2022-12-07T08:05:16;2.40;99.90
19692;DHT22;42748;50.016;19.890;2022-12-07T08:07:43;2.40;99.90
19692;DHT22;42748;50.016;19.890;2022-12-07T08:10:12;2.40;99.90
19692;DHT22;42748;50.016;19.890;2022-12-07T08:12:41;2.30;99.90
19692;DHT22;42748;50.016;19.890;2022-12-07T08:15:30;2.40;99.90
19692;DHT22;42748;50.016;19.890;2022-12-07T08:17:58;2.30;99.90
19692;DHT22;42748;50.016;19.890;2022-12-07T08:20:25;2.30;99.90
19692;DHT22;42748;50.016;19.890;2022-12-07T08:22:53;2.40;99.90
19692;DHT22;42748;50.016;19.890;2022-12-07T08:25:20;2.40;99.90
19692;DHT22;42748;50.016;19.890;2022-12-07T08:27:49;2.40;99.90
19692;DHT22;42748;50.016;19.890;2022-12-07T08:30:16;2.30;99.90
19692;DHT22;42748;50.016;19.890;2022-12-07T08:32:47;2.40;99.90
19692;DHT22;42748;50.016;19.890;2022-12-07T08:35:15;2.40;99.90
19692;DHT22;42748;50.016;19.890;2022-12-07T08:37:42;2.40;99.90
19692;DHT22;42748;50.016;19.890;2022-12-07T08:40:11;2.50;99.90
19692;DHT22;42748;50.016;19.890;2022-12-07T08:42:51;2.50;99.90
19692;DHT22;42748;50.016;19.890;2022-12-07T08:45:19;2.50;99.90
19692;DHT22;42748;50.016;19.890;2022-12-07T08:48:01;2.50;99.90
19692;DHT22;42748;50.016;19.890;2022-12-07T08:50:31;2.50;99.90
19692;DHT22;42748;50.016;19.890;2022-12-07T08:53:00;2.60;99.90
19692;DHT22;42748;50.016;19.890;2022-12-07T08:55:28;2.60;99.90
19692;DHT22;42748;50.016;19.890;2022-12-07T08:57:57;2.70;99.90
19692;DHT22;42748;50.016;19.890;2022-12-07T09:00:26;2.70;99.90
19692;DHT22;42748;50.016;19.890;2022-12-07T09:02:54;2.70;99.90
19692;DHT22;42748;50.016;19.890;2022-12-07T09:05:21;2.80;99.90
19692;DHT22;42748;50.016;19.890;2022-12-07T09:07:51;2.80;99.90
19692;DHT22;42748;50.016;19.890;2022-12-07T09:10:23;2.90;99.90
19692;DHT22;42748;50.016;19.890;2022-12-07T09:12:50;2.90;99.90
19692;DHT22;42748;50.016;19.890;2022-12-07T09:15:17;3.00;99.90
19692;DHT22;42748;50.016;19.890;2022-12-07T09:17:44;3.00;99.90
19692;DHT22;42748;50.016;19.890;2022-12-07T09:20:12;3.00;99.90
19692;DHT22;42748;50.016;19.890;2022-12-07T09:22:39;3.00;99.90
19692;DHT22;42748;50.016;19.890;2022-12-07T09:25:06;3.00;99.90
19692;DHT22;42748;50.016;19.890;2022-12-07T09:27:33;3.10;99.90
19692;DHT22;42748;50.016;19.890;2022-12-07T09:30:00;3.10;99.90
19692;DHT22;42748;50.016;19.890;2022-12-07T09:32:28;3.20;99.90
19692;DHT22;42748;50.016;19.890;2022-12-07T09:34:55;3.30;99.90
19692;DHT22;42748;50.016;19.890;2022-12-07T09:37:22;3.30;99.90
19692;DHT22;42748;50.016;19.890;2022-12-07T09:39:49;3.30;99.90
19692;DHT22;42748;50.016;19.890;2022-12-07T09:42:32;3.30;99.90
19692;DHT22;42748;50.016;19.890;2022-12-07T09:45:02;3.20;99.90
19692;DHT22;42748;50.016;19.890;2022-12-07T09:47:32;3.30;99.90
19692;DHT22;42748;50.016;19.890;2022-12-07T09:50:05;3.30;99.90
19692;DHT22;42748;50.016;19.890;2022-12-07T09:52:34;3.40;99.90
19692;DHT22;42748;50.016;19.890;2022-12-07T09:55:15;3.30;99.90
19692;DHT22;42748;50.016;19.890;2022-12-07T09:57:43;3.30;99.90
19692;DHT22;42748;50.016;19.890;2022-12-07T10:00:16;3.30;99.90
19692;DHT22;42748;50.016;19.890;2022-12-07T10:02:44;3.40;99.90
19692;DHT22;42748;50.016;19.890;2022-12-07T10:05:22;3.40;99.90
19692;DHT22;42748;50.016;19.890;2022-12-07T10:07:51;3.40;99.90
19692;DHT22;42748;50.016;19.890;2022-12-07T10:10:30;3.50;99.90
19692;DHT22;42748;50.016;19.890;2022-12-07T10:13:04;3.50;99.90
19692;DHT22;42748;50.016;19.890;2022-12-07T10:15:48;3.50;99.90
19692;DHT22;42748;50.016;19.890;2022-12-07T10:18:31;3.40;99.90
19692;DHT22;42748;50.016;19.890;2022-12-07T10:21:14;3.50;99.90
19692;DHT22;42748;50.016;19.890;2022-12-07T10:24:00;3.40;99.90
19692;DHT22;42748;50.016;19.890;2022-12-07T10:26:34;3.50;99.90
19692;DHT22;42748;50.016;19.890;2022-12-07T10:29:23;3.50;99.90
19692;DHT22;42748;50.016;19.890;2022-12-07T10:31:57;3.50;99.90
19692;DHT22;42748;50.016;19.890;2022-12-07T10:34:26;3.60;99.90
19692;DHT22;42748;50.016;19.890;2022-12-07T10:36:53;3.60;99.90
19692;DHT22;42748;50.016;19.890;2022-12-07T10:42:30;3.60;99.90
19692;DHT22;42748;50.016;19.890;2022-12-07T10:45:12;3.70;99.90
19692;DHT22;42748;50.016;19.890;2022-12-07T10:47:49;3.80;99.90
19692;DHT22;42748;50.016;19.890;2022-12-07T11:01:50;4.00;99.90
19692;DHT22;42748;50.016;19.890;2022-12-07T11:07:13;3.90;99.90
19692;DHT22;42748;50.016;19.890;2022-12-07T11:16:03;4.20;99.90
19692;DHT22;42748;50.016;19.890;2022-12-07T11:18:51;4.60;99.90
19692;DHT22;42748;50.016;19.890;2022-12-07T11:21:45;4.70;99.90
19692;DHT22;42748;50.016;19.890;2022-12-07T11:24:20;4.80;99.90
19692;DHT22;42748;50.016;19.890;2022-12-07T11:29:41;4.60;99.90
19692;DHT22;42748;50.016;19.890;2022-12-07T11:35:31;4.70;99.90
19692;DHT22;42748;50.016;19.890;2022-12-07T11:38:11;4.70;99.90
19692;DHT22;42748;50.016;19.890;2022-12-07T11:40:40;4.70;99.90
19692;DHT22;42748;50.016;19.890;2022-12-07T11:46:14;4.60;99.90
19692;DHT22;42748;50.016;19.890;2022-12-07T11:49:01;4.60;99.90
19692;DHT22;42748;50.016;19.890;2022-12-07T11:51:32;4.60;99.90
19692;DHT22;42748;50.016;19.890;2022-12-07T11:54:12;4.60;99.90
19692;DHT22;42748;50.016;19.890;2022-12-07T11:56:41;4.60;99.90
19692;DHT22;42748;50.016;19.890;2022-12-07T11:59:12;4.60;99.90
19692;DHT22;42748;50.016;19.890;2022-12-07T12:07:00;4.70;99.90
19692;DHT22;42748;50.016;19.890;2022-12-07T12:10:06;4.80;99.90
19692;DHT22;42748;50.016;19.890;2022-12-07T12:13:07;4.90;99.90
19692;DHT22;42748;50.016;19.890;2022-12-07T12:19:25;4.80;99.90
19692;DHT22;42748;50.016;19.890;2022-12-07T12:22:13;4.80;99.90
19692;DHT22;42748;50.016;19.890;2022-12-07T12:24:43;4.80;99.90
19692;DHT22;42748;50.016;19.890;2022-12-07T12:27:33;4.80;99.90
19692;DHT22;42748;50.016;19.890;2022-12-07T12:30:05;4.70;99.90
19692;DHT22;42748;50.016;19.890;2022-12-07T12:32:44;4.70;99.90
19692;DHT22;42748;50.016;19.890;2022-12-07T12:35:32;4.70;99.90
19692;DHT22;42748;50.016;19.890;2022-12-07T12:38:29;4.70;99.90
19692;DHT22;42748;50.016;19.890;2022-12-07T12:40:57;4.70;99.90
19692;DHT22;42748;50.016;19.890;2022-12-07T12:49:15;4.70;99.90
19692;DHT22;42748;50.016;19.890;2022-12-07T12:54:32;4.60;99.90
19692;DHT22;42748;50.016;19.890;2022-12-07T13:04:59;4.40;99.90
19692;DHT22;42748;50.016;19.890;2022-12-07T13:15:38;4.40;99.90
19692;DHT22;42748;50.016;19.890;2022-12-07T13:20:48;4.40;99.90
19692;DHT22;42748;50.016;19.890;2022-12-07T13:23:19;4.40;99.90
19692;DHT22;42748;50.016;19.890;2022-12-07T13:28:41;4.50;99.90
19692;DHT22;42748;50.016;19.890;2022-12-07T13:33:56;4.40;99.90
19692;DHT22;42748;50.016;19.890;2022-12-07T13:36:25;4.40;99.90
19692;DHT22;42748;50.016;19.890;2022-12-07T13:38:58;4.40;99.90
19692;DHT22;42748;50.016;19.890;2022-12-07T13:41:27;4.40;99.90
19692;DHT22;42748;50.016;19.890;2022-12-07T13:44:02;4.40;99.90
19692;DHT22;42748;50.016;19.890;2022-12-07T13:49:46;4.40;99.90
19692;DHT22;42748;50.016;19.890;2022-12-07T13:52:29;4.40;99.90
19692;DHT22;42748;50.016;19.890;2022-12-07T13:55:00;4.40;99.90
19692;DHT22;42748;50.016;19.890;2022-12-07T13:57:29;4.40;99.90
19692;DHT22;42748;50.016;19.890;2022-12-07T13:59:58;4.40;99.90
19692;DHT22;42748;50.016;19.890;2022-12-07T14:02:28;4.30;99.90
19692;DHT22;42748;50.016;19.890;2022-12-07T14:05:24;4.30;99.90
19692;DHT22;42748;50.016;19.890;2022-12-07T14:07:58;4.20;99.90
19692;DHT22;42748;50.016;19.890;2022-12-07T14:10:54;4.20;99.90
19692;DHT22;42748;50.016;19.890;2022-12-07T14:13:37;4.20;99.90
19692;DHT22;42748;50.016;19.890;2022-12-07T14:16:23;4.20;99.90
19692;DHT22;42748;50.016;19.890;2022-12-07T14:18:57;4.10;99.90
19692;DHT22;42748;50.016;19.890;2022-12-07T14:21:30;4.10;99.90
19692;DHT22;42748;50.016;19.890;2022-12-07T14:24:15;4.00;99.90
19692;DHT22;42748;50.016;19.890;2022-12-07T14:26:47;3.90;99.90
19692;DHT22;42748;50.016;19.890;2022-12-07T14:31:52;3.90;99.90
19692;DHT22;42748;50.016;19.890;2022-12-07T14:34:21;3.80;99.90
19692;DHT22;42748;50.016;19.890;2022-12-07T14:36:48;3.80;99.90
19692;DHT22;42748;50.016;19.890;2022-12-07T14:39:21;3.70;99.90
19692;DHT22;42748;50.016;19.890;2022-12-07T14:41:49;3.80;99.90
19692;DHT22;42748;50.016;19.890;2022-12-07T14:44:21;3.80;99.90
19692;DHT22;42748;50.016;19.890;2022-12-07T14:46:54;3.80;99.90
19692;DHT22;42748;50.016;19.890;2022-12-07T14:49:41;3.80;99.90
19692;DHT22;42748;50.016;19.890;2022-12-07T14:52:15;3.80;99.90
19692;DHT22;42748;50.016;19.890;2022-12-07T14:55:03;3.80;99.90
19692;DHT22;42748;50.016;19.890;2022-12-07T14:57:31;3.80;99.90
19692;DHT22;42748;50.016;19.890;2022-12-07T14:59:58;3.80;99.90
19692;DHT22;42748;50.016;19.890;2022-12-07T15:02:25;3.80;99.90
19692;DHT22;42748;50.016;19.890;2022-12-07T15:04:52;3.80;99.90
19692;DHT22;42748;50.016;19.890;2022-12-07T15:07:20;3.80;99.90
19692;DHT22;42748;50.016;19.890;2022-12-07T15:09:48;3.80;99.90
19692;DHT22;42748;50.016;19.890;2022-12-07T15:12:15;3.80;99.90
19692;DHT22;42748;50.016;19.890;2022-12-07T15:14:42;3.80;99.90
19692;DHT22;42748;50.016;19.890;2022-12-07T15:17:11;3.80;99.90
19692;DHT22;42748;50.016;19.890;2022-12-07T15:19:57;3.80;99.90
19692;DHT22;42748;50.016;19.890;2022-12-07T15:22:24;3.80;99.90
19692;DHT22;42748;50.016;19.890;2022-12-07T15:24:51;3.80;99.90
19692;DHT22;42748;50.016;19.890;2022-12-07T15:27:18;3.90;99.90
19692;DHT22;42748;50.016;19.890;2022-12-07T15:29:45;3.90;99.90
19692;DHT22;42748;50.016;19.890;2022-12-07T15:32:12;3.90;99.90
19692;DHT22;42748;50.016;19.890;2022-12-07T15:34:39;3.90;99.90
19692;DHT22;42748;50.016;19.890;2022-12-07T15:37:07;3.90;99.90
19692;DHT22;42748;50.016;19.890;2022-12-07T15:39:36;3.90;99.90
19692;DHT22;42748;50.016;19.890;2022-12-07T15:42:03;3.90;99.90
19692;DHT22;42748;50.016;19.890;2022-12-07T15:44:30;3.90;99.90
19692;DHT22;42748;50.016;19.890;2022-12-07T15:47:17;3.90;99.90
19692;DHT22;42748;50.016;19.890;2022-12-07T15:49:44;3.80;99.90
19692;DHT22;42748;50.016;19.890;2022-12-07T15:52:11;3.80;99.90
19692;DHT22;42748;50.016;19.890;2022-12-07T15:54:38;3.80;99.90
19692;DHT22;42748;50.016;19.890;2022-12-07T15:57:06;3.80;99.90
19692;DHT22;42748;50.016;19.890;2022-12-07T15:59:33;3.80;99.90
19692;DHT22;42748;50.016;19.890;2022-12-07T16:02:00;3.80;99.90
19692;DHT22;42748;50.016;19.890;2022-12-07T16:04:28;3.80;99.90
19692;DHT22;42748;50.016;19.890;2022-12-07T16:06:56;3.80;99.90
19692;DHT22;42748;50.016;19.890;2022-12-07T16:09:23;3.80;99.90
19692;DHT22;42748;50.016;19.890;2022-12-07T16:11:50;3.80;99.90
19692;DHT22;42748;50.016;19.890;2022-12-07T16:14:19;3.80;99.90
19692;DHT22;42748;50.016;19.890;2022-12-07T16:16:46;3.90;99.90
19692;DHT22;42748;50.016;19.890;2022-12-07T16:19:13;3.80;99.90
19692;DHT22;42748;50.016;19.890;2022-12-07T16:21:40;3.80;99.90
19692;DHT22;42748;50.016;19.890;2022-12-07T16:24:09;3.90;99.90
19692;DHT22;42748;50.016;19.890;2022-12-07T16:26:37;3.80;99.90
19692;DHT22;42748;50.016;19.890;2022-12-07T16:29:04;3.90;99.90
19692;DHT22;42748;50.016;19.890;2022-12-07T16:31:31;3.90;99.90
19692;DHT22;42748;50.016;19.890;2022-12-07T16:33:58;3.90;99.90
19692;DHT22;42748;50.016;19.890;2022-12-07T16:36:26;3.90;99.90
19692;DHT22;42748;50.016;19.890;2022-12-07T16:39:14;3.90;99.90
19692;DHT22;42748;50.016;19.890;2022-12-07T16:41:41;3.90;99.90
19692;DHT22;42748;50.016;19.890;2022-12-07T16:44:10;3.90;99.90
19692;DHT22;42748;50.016;19.890;2022-12-07T16:46:42;3.90;99.90
19692;DHT22;42748;50.016;19.890;2022-12-07T16:49:14;4.00;99.90
19692;DHT22;42748;50.016;19.890;2022-12-07T16:51:42;4.00;99.90
19692;DHT22;42748;50.016;19.890;2022-12-07T16:54:11;4.00;99.90
19692;DHT22;42748;50.016;19.890;2022-12-07T16:56:39;4.00;99.90
19692;DHT22;42748;50.016;19.890;2022-12-07T16:59:06;4.00;99.90
19692;DHT22;42748;50.016;19.890;2022-12-07T17:01:33;4.00;99.90
19692;DHT22;42748;50.016;19.890;2022-12-07T17:04:01;4.00;99.90
19692;DHT22;42748;50.016;19.890;2022-12-07T17:06:28;4.00;99.90
19692;DHT22;42748;50.016;19.890;2022-12-07T17:08:56;4.00;99.90
19692;DHT22;42748;50.016;19.890;2022-12-07T17:11:29;4.00;99.90
19692;DHT22;42748;50.016;19.890;2022-12-07T17:13:57;4.00;99.90
19692;DHT22;42748;50.016;19.890;2022-12-07T17:16:43;3.90;99.90
19692;DHT22;42748;50.016;19.890;2022-12-07T17:19:13;3.90;99.90
19692;DHT22;42748;50.016;19.890;2022-12-07T17:21:41;3.90;99.90
19692;DHT22;42748;50.016;19.890;2022-12-07T17:24:10;3.90;99.90
19692;DHT22;42748;50.016;19.890;2022-12-07T17:26:38;3.80;99.90
19692;DHT22;42748;50.016;19.890;2022-12-07T17:29:06;3.70;99.90
19692;DHT22;42748;50.016;19.890;2022-12-07T17:31:35;3.70;99.90
19692;DHT22;42748;50.016;19.890;2022-12-07T17:34:02;3.60;99.90
19692;DHT22;42748;50.016;19.890;2022-12-07T17:36:31;3.60;99.90
19692;DHT22;42748;50.016;19.890;2022-12-07T17:38:58;3.60;99.90
19692;DHT22;42748;50.016;19.890;2022-12-07T17:41:27;3.50;99.90
19692;DHT22;42748;50.016;19.890;2022-12-07T17:44:15;3.50;99.90
19692;DHT22;42748;50.016;19.890;2022-12-07T17:46:44;3.50;99.90
19692;DHT22;42748;50.016;19.890;2022-12-07T17:49:12;3.40;99.90
19692;DHT22;42748;50.016;19.890;2022-12-07T17:51:39;3.40;99.90
19692;DHT22;42748;50.016;19.890;2022-12-07T17:54:25;3.30;99.90
19692;DHT22;42748;50.016;19.890;2022-12-07T17:56:52;3.30;99.90
19692;DHT22;42748;50.016;19.890;2022-12-07T17:59:19;3.30;99.90